sensor_id;sensor_type;location;lat;lon;timestamp;temperature;humidity
7606;DHT22;3844;53.360;9.738;2022-11-15T00:01:35;6.50;95.70
7606;DHT22;3844;53.360;9.738;2022-11-15T00:03:37;6.50;95.70
7606;DHT22;3844;53.360;9.738;2022-11-15T00:05:38;6.50;95.70
7606;DHT22;3844;53.360;9.738;2022-11-15T00:07:38;6.50;95.70
7606;DHT22;3844;53.360;9.738;2022-11-15T00:09:39;6.60;95.70
7606;DHT22;3844;53.360;9.738;2022-11-15T00:11:40;6.60;95.70
7606;DHT22;3844;53.360;9.738;2022-11-15T00:13:40;6.60;95.70
7606;DHT22;3844;53.360;9.738;2022-11-15T00:15:41;6.50;95.70
7606;DHT22;3844;53.360;9.738;2022-11-15T00:17:42;6.60;95.70
7606;DHT22;3844;53.360;9.738;2022-11-15T00:19:42;6.60;95.70
7606;DHT22;3844;53.360;9.738;2022-11-15T00:21:43;6.50;95.70
7606;DHT22;3844;53.360;9.738;2022-11-15T00:23:44;6.50;95.70
7606;DHT22;3844;53.360;9.738;2022-11-15T00:25:44;6.50;95.70
7606;DHT22;3844;53.360;9.738;2022-11-15T00:27:45;6.40;95.70
7606;DHT22;3844;53.360;9.738;2022-11-15T00:29:46;6.40;95.70
7606;DHT22;3844;53.360;9.738;2022-11-15T00:31:46;6.40;95.70
7606;DHT22;3844;53.360;9.738;2022-11-15T00:33:47;6.30;95.70
7606;DHT22;3844;53.360;9.738;2022-11-15T00:35:48;6.30;95.70
7606;DHT22;3844;53.360;9.738;2022-11-15T00:37:49;6.20;95.70
7606;DHT22;3844;53.360;9.738;2022-11-15T00:39:49;6.20;95.70
7606;DHT22;3844;53.360;9.738;2022-11-15T00:43:51;6.10;95.70
7606;DHT22;3844;53.360;9.738;2022-11-15T00:47:52;6.10;95.70
7606;DHT22;3844;53.360;9.738;2022-11-15T00:49:53;6.10;95.70
7606;DHT22;3844;53.360;9.738;2022-11-15T00:51:54;6.10;95.70
7606;DHT22;3844;53.360;9.738;2022-11-15T00:53:54;6.10;95.70
7606;DHT22;3844;53.360;9.738;2022-11-15T00:55:55;6.00;95.70
7606;DHT22;3844;53.360;9.738;2022-11-15T00:59:57;6.00;95.70
7606;DHT22;3844;53.360;9.738;2022-11-15T01:01:57;6.00;95.70
7606;DHT22;3844;53.360;9.738;2022-11-15T01:03:58;6.00;95.70
7606;DHT22;3844;53.360;9.738;2022-11-15T01:05:59;6.00;95.70
7606;DHT22;3844;53.360;9.738;2022-11-15T01:10:02;6.00;95.70
7606;DHT22;3844;53.360;9.738;2022-11-15T01:12:03;6.00;95.70
7606;DHT22;3844;53.360;9.738;2022-11-15T01:14:03;5.90;95.70
7606;DHT22;3844;53.360;9.738;2022-11-15T01:16:13;5.90;95.70
7606;DHT22;3844;53.360;9.738;2022-11-15T01:18:14;5.80;95.70
7606;DHT22;3844;53.360;9.738;2022-11-15T01:22:16;5.70;95.70
7606;DHT22;3844;53.360;9.738;2022-11-15T01:24:17;5.60;95.70
7606;DHT22;3844;53.360;9.738;2022-11-15T01:26:18;5.60;95.70
7606;DHT22;3844;53.360;9.738;2022-11-15T01:28:18;5.50;95.70
7606;DHT22;3844;53.360;9.738;2022-11-15T01:34:21;5.40;95.70
7606;DHT22;3844;53.360;9.738;2022-11-15T01:36:22;5.40;95.70
7606;DHT22;3844;53.360;9.738;2022-11-15T01:38:23;5.40;95.70
7606;DHT22;3844;53.360;9.738;2022-11-15T01:40:23;5.30;95.70
7606;DHT22;3844;53.360;9.738;2022-11-15T01:42:24;5.30;95.70
7606;DHT22;3844;53.360;9.738;2022-11-15T01:44:39;5.30;95.70
7606;DHT22;3844;53.360;9.738;2022-11-15T01:46:46;5.20;95.70
7606;DHT22;3844;53.360;9.738;2022-11-15T01:48:50;5.20;95.70
7606;DHT22;3844;53.360;9.738;2022-11-15T01:50:52;5.20;95.70
7606;DHT22;3844;53.360;9.738;2022-11-15T01:52:52;5.10;95.70
7606;DHT22;3844;53.360;9.738;2022-11-15T01:54:59;5.10;95.70
7606;DHT22;3844;53.360;9.738;2022-11-15T01:57:09;5.00;95.70
7606;DHT22;3844;53.360;9.738;2022-11-15T01:59:10;5.00;95.70
7606;DHT22;3844;53.360;9.738;2022-11-15T02:01:13;4.90;95.70
7606;DHT22;3844;53.360;9.738;2022-11-15T02:03:14;4.90;95.70
7606;DHT22;3844;53.360;9.738;2022-11-15T02:05:15;4.90;95.70
7606;DHT22;3844;53.360;9.738;2022-11-15T02:07:17;4.80;95.70
7606;DHT22;3844;53.360;9.738;2022-11-15T02:11:19;4.70;95.70
7606;DHT22;3844;53.360;9.738;2022-11-15T02:13:20;4.70;95.70
7606;DHT22;3844;53.360;9.738;2022-11-15T02:15:22;4.70;95.70
7606;DHT22;3844;53.360;9.738;2022-11-15T02:22:44;4.50;95.70
7606;DHT22;3844;53.360;9.738;2022-11-15T02:32:06;4.20;95.70
7606;DHT22;3844;53.360;9.738;2022-11-15T02:36:14;4.20;95.70
7606;DHT22;3844;53.360;9.738;2022-11-15T02:38:36;4.20;95.70
7606;DHT22;3844;53.360;9.738;2022-11-15T02:43:08;4.10;95.70
7606;DHT22;3844;53.360;9.738;2022-11-15T02:45:51;4.00;95.70
7606;DHT22;3844;53.360;9.738;2022-11-15T02:47:52;4.00;95.70
7606;DHT22;3844;53.360;9.738;2022-11-15T02:49:59;3.90;95.70
7606;DHT22;3844;53.360;9.738;2022-11-15T02:52:00;4.00;95.70
7606;DHT22;3844;53.360;9.738;2022-11-15T02:54:01;3.90;95.70
7606;DHT22;3844;53.360;9.738;2022-11-15T02:56:02;4.00;95.70
7606;DHT22;3844;53.360;9.738;2022-11-15T02:58:56;3.90;95.70
7606;DHT22;3844;53.360;9.738;2022-11-15T03:01:15;3.90;95.70
7606;DHT22;3844;53.360;9.738;2022-11-15T03:07:54;3.90;95.70
7606;DHT22;3844;53.360;9.738;2022-11-15T03:12:07;3.90;95.70
7606;DHT22;3844;53.360;9.738;2022-11-15T03:14:36;3.90;95.70
7606;DHT22;3844;53.360;9.738;2022-11-15T03:18:47;4.00;95.70
7606;DHT22;3844;53.360;9.738;2022-11-15T03:20:50;4.00;95.70
7606;DHT22;3844;53.360;9.738;2022-11-15T03:22:52;4.10;95.70
7606;DHT22;3844;53.360;9.738;2022-11-15T03:24:59;4.10;95.70
7606;DHT22;3844;53.360;9.738;2022-11-15T03:27:02;4.10;95.70
7606;DHT22;3844;53.360;9.738;2022-11-15T03:29:08;4.20;95.70
7606;DHT22;3844;53.360;9.738;2022-11-15T03:31:13;4.20;95.70
7606;DHT22;3844;53.360;9.738;2022-11-15T03:33:34;4.20;95.70
7606;DHT22;3844;53.360;9.738;2022-11-15T03:35:38;4.30;95.70
7606;DHT22;3844;53.360;9.738;2022-11-15T03:38:21;4.30;95.70
7606;DHT22;3844;53.360;9.738;2022-11-15T03:40:28;4.40;95.70
7606;DHT22;3844;53.360;9.738;2022-11-15T03:42:43;4.50;95.70
7606;DHT22;3844;53.360;9.738;2022-11-15T03:47:09;4.70;95.70
7606;DHT22;3844;53.360;9.738;2022-11-15T03:49:24;4.80;95.70
7606;DHT22;3844;53.360;9.738;2022-11-15T03:51:26;4.90;95.70
7606;DHT22;3844;53.360;9.738;2022-11-15T03:53:27;5.00;95.70
7606;DHT22;3844;53.360;9.738;2022-11-15T03:55:28;5.10;95.70
7606;DHT22;3844;53.360;9.738;2022-11-15T04:01:34;5.30;95.70
7606;DHT22;3844;53.360;9.738;2022-11-15T04:03:34;5.30;95.70
7606;DHT22;3844;53.360;9.738;2022-11-15T04:07:36;5.40;95.70
7606;DHT22;3844;53.360;9.738;2022-11-15T04:09:37;5.50;95.70
7606;DHT22;3844;53.360;9.738;2022-11-15T04:12:04;5.60;95.70
7606;DHT22;3844;53.360;9.738;2022-11-15T04:14:04;5.60;95.70
7606;DHT22;3844;53.360;9.738;2022-11-15T04:16:05;5.70;95.70
7606;DHT22;3844;53.360;9.738;2022-11-15T04:18:06;5.80;95.70
7606;DHT22;3844;53.360;9.738;2022-11-15T04:20:17;5.80;95.70
7606;DHT22;3844;53.360;9.738;2022-11-15T04:24:56;6.00;95.70
7606;DHT22;3844;53.360;9.738;2022-11-15T04:26:56;6.00;95.70
7606;DHT22;3844;53.360;9.738;2022-11-15T04:28:57;6.10;95.70
7606;DHT22;3844;53.360;9.738;2022-11-15T04:31:16;6.10;95.70
7606;DHT22;3844;53.360;9.738;2022-11-15T04:33:17;6.20;95.70
7606;DHT22;3844;53.360;9.738;2022-11-15T04:35:18;6.20;95.70
7606;DHT22;3844;53.360;9.738;2022-11-15T04:37:18;6.30;95.70
7606;DHT22;3844;53.360;9.738;2022-11-15T04:39:19;6.30;95.70
7606;DHT22;3844;53.360;9.738;2022-11-15T04:41:20;6.30;95.70
7606;DHT22;3844;53.360;9.738;2022-11-15T04:45:21;6.40;95.70
7606;DHT22;3844;53.360;9.738;2022-11-15T04:47:22;6.40;95.70
7606;DHT22;3844;53.360;9.738;2022-11-15T04:49:23;6.50;95.70
7606;DHT22;3844;53.360;9.738;2022-11-15T04:51:23;6.50;95.70
7606;DHT22;3844;53.360;9.738;2022-11-15T04:53:24;6.60;95.70
7606;DHT22;3844;53.360;9.738;2022-11-15T04:57:26;6.60;95.70
7606;DHT22;3844;53.360;9.738;2022-11-15T04:59:26;6.60;95.70
7606;DHT22;3844;53.360;9.738;2022-11-15T05:03:28;6.70;95.70
7606;DHT22;3844;53.360;9.738;2022-11-15T05:07:48;6.70;95.70
7606;DHT22;3844;53.360;9.738;2022-11-15T05:09:48;6.70;95.70
7606;DHT22;3844;53.360;9.738;2022-11-15T05:11:49;6.70;95.70
7606;DHT22;3844;53.360;9.738;2022-11-15T05:13:50;6.80;95.70
7606;DHT22;3844;53.360;9.738;2022-11-15T05:17:57;6.80;95.70
7606;DHT22;3844;53.360;9.738;2022-11-15T05:19:58;6.90;95.70
7606;DHT22;3844;53.360;9.738;2022-11-15T05:22:00;6.90;95.70
7606;DHT22;3844;53.360;9.738;2022-11-15T05:24:01;6.90;95.70
7606;DHT22;3844;53.360;9.738;2022-11-15T05:26:03;7.00;95.70
7606;DHT22;3844;53.360;9.738;2022-11-15T05:28:04;7.10;95.70
7606;DHT22;3844;53.360;9.738;2022-11-15T05:30:05;7.10;95.70
7606;DHT22;3844;53.360;9.738;2022-11-15T05:32:08;7.20;95.70
7606;DHT22;3844;53.360;9.738;2022-11-15T05:34:09;7.20;95.70
7606;DHT22;3844;53.360;9.738;2022-11-15T05:36:21;7.30;95.70
7606;DHT22;3844;53.360;9.738;2022-11-15T05:38:25;7.30;95.70
7606;DHT22;3844;53.360;9.738;2022-11-15T05:40:27;7.30;95.70
7606;DHT22;3844;53.360;9.738;2022-11-15T05:42:29;7.40;95.70
7606;DHT22;3844;53.360;9.738;2022-11-15T05:44:31;7.40;95.70
7606;DHT22;3844;53.360;9.738;2022-11-15T05:46:33;7.40;95.70
7606;DHT22;3844;53.360;9.738;2022-11-15T05:48:35;7.50;95.70
7606;DHT22;3844;53.360;9.738;2022-11-15T05:50:38;7.50;95.70
7606;DHT22;3844;53.360;9.738;2022-11-15T05:52:42;7.60;95.70
7606;DHT22;3844;53.360;9.738;2022-11-15T05:54:43;7.60;95.60
7606;DHT22;3844;53.360;9.738;2022-11-15T05:56:44;7.70;95.70
7606;DHT22;3844;53.360;9.738;2022-11-15T05:58:45;7.70;95.70
7606;DHT22;3844;53.360;9.738;2022-11-15T06:00:45;7.70;95.70
7606;DHT22;3844;53.360;9.738;2022-11-15T06:02:46;7.70;95.70
7606;DHT22;3844;53.360;9.738;2022-11-15T06:04:47;7.70;95.70
7606;DHT22;3844;53.360;9.738;2022-11-15T06:08:49;7.80;95.60
7606;DHT22;3844;53.360;9.738;2022-11-15T06:10:49;7.90;95.50
7606;DHT22;3844;53.360;9.738;2022-11-15T06:13:00;7.90;95.50
7606;DHT22;3844;53.360;9.738;2022-11-15T06:15:01;7.90;95.50
7606;DHT22;3844;53.360;9.738;2022-11-15T06:17:02;7.90;95.50
7606;DHT22;3844;53.360;9.738;2022-11-15T06:19:03;7.90;95.40
7606;DHT22;3844;53.360;9.738;2022-11-15T06:21:04;8.00;95.40
7606;DHT22;3844;53.360;9.738;2022-11-15T06:23:05;8.00;95.40
7606;DHT22;3844;53.360;9.738;2022-11-15T06:25:06;8.10;95.40
7606;DHT22;3844;53.360;9.738;2022-11-15T06:27:07;8.10;95.30
7606;DHT22;3844;53.360;9.738;2022-11-15T06:29:08;8.10;95.30
7606;DHT22;3844;53.360;9.738;2022-11-15T06:31:10;8.10;95.40
7606;DHT22;3844;53.360;9.738;2022-11-15T06:33:11;8.20;95.30
7606;DHT22;3844;53.360;9.738;2022-11-15T06:35:12;8.20;95.30
7606;DHT22;3844;53.360;9.738;2022-11-15T06:37:13;8.20;95.30
7606;DHT22;3844;53.360;9.738;2022-11-15T06:41:15;8.30;95.20
7606;DHT22;3844;53.360;9.738;2022-11-15T06:43:17;8.30;95.10
7606;DHT22;3844;53.360;9.738;2022-11-15T06:45:17;8.40;95.10
7606;DHT22;3844;53.360;9.738;2022-11-15T06:47:18;8.40;95.10
7606;DHT22;3844;53.360;9.738;2022-11-15T06:49:19;8.40;95.10
7606;DHT22;3844;53.360;9.738;2022-11-15T06:51:20;8.40;95.10
7606;DHT22;3844;53.360;9.738;2022-11-15T06:53:21;8.50;95.10
7606;DHT22;3844;53.360;9.738;2022-11-15T06:55:22;8.50;95.20
7606;DHT22;3844;53.360;9.738;2022-11-15T06:59:24;8.50;95.10
7606;DHT22;3844;53.360;9.738;2022-11-15T07:01:25;8.60;95.00
7606;DHT22;3844;53.360;9.738;2022-11-15T07:03:26;8.60;95.00
7606;DHT22;3844;53.360;9.738;2022-11-15T07:05:27;8.60;95.00
7606;DHT22;3844;53.360;9.738;2022-11-15T07:07:28;8.60;95.00
7606;DHT22;3844;53.360;9.738;2022-11-15T07:09:28;8.70;95.00
7606;DHT22;3844;53.360;9.738;2022-11-15T07:11:29;8.70;94.90
7606;DHT22;3844;53.360;9.738;2022-11-15T07:13:31;8.80;94.90
7606;DHT22;3844;53.360;9.738;2022-11-15T07:15:35;8.80;94.90
7606;DHT22;3844;53.360;9.738;2022-11-15T07:17:35;8.80;94.90
7606;DHT22;3844;53.360;9.738;2022-11-15T07:19:36;8.80;94.90
7606;DHT22;3844;53.360;9.738;2022-11-15T07:21:37;8.80;94.90
7606;DHT22;3844;53.360;9.738;2022-11-15T07:23:38;8.90;94.80
7606;DHT22;3844;53.360;9.738;2022-11-15T07:25:39;8.90;94.80
7606;DHT22;3844;53.360;9.738;2022-11-15T07:27:40;9.00;94.80
7606;DHT22;3844;53.360;9.738;2022-11-15T07:29:41;9.00;94.70
7606;DHT22;3844;53.360;9.738;2022-11-15T07:31:41;9.00;94.70
7606;DHT22;3844;53.360;9.738;2022-11-15T07:33:42;9.10;94.70
7606;DHT22;3844;53.360;9.738;2022-11-15T07:35:43;9.20;94.70
7606;DHT22;3844;53.360;9.738;2022-11-15T07:37:56;9.10;94.70
7606;DHT22;3844;53.360;9.738;2022-11-15T07:39:57;9.30;94.50
7606;DHT22;3844;53.360;9.738;2022-11-15T07:41:58;9.30;94.60
7606;DHT22;3844;53.360;9.738;2022-11-15T07:46:19;9.40;94.70
7606;DHT22;3844;53.360;9.738;2022-11-15T07:48:19;9.50;94.70
7606;DHT22;3844;53.360;9.738;2022-11-15T07:50:20;9.50;94.80
7606;DHT22;3844;53.360;9.738;2022-11-15T07:52:21;9.60;94.80
7606;DHT22;3844;53.360;9.738;2022-11-15T07:54:22;9.60;94.90
7606;DHT22;3844;53.360;9.738;2022-11-15T07:56:22;9.60;94.90
7606;DHT22;3844;53.360;9.738;2022-11-15T07:58:23;9.60;94.90
7606;DHT22;3844;53.360;9.738;2022-11-15T08:00:24;9.60;94.80
7606;DHT22;3844;53.360;9.738;2022-11-15T08:02:24;9.70;94.80
7606;DHT22;3844;53.360;9.738;2022-11-15T08:04:25;9.70;94.90
7606;DHT22;3844;53.360;9.738;2022-11-15T08:06:26;9.80;94.90
7606;DHT22;3844;53.360;9.738;2022-11-15T08:08:26;9.80;94.90
7606;DHT22;3844;53.360;9.738;2022-11-15T08:10:28;9.80;94.90
7606;DHT22;3844;53.360;9.738;2022-11-15T08:12:28;9.90;95.00
7606;DHT22;3844;53.360;9.738;2022-11-15T08:14:29;9.90;95.00
7606;DHT22;3844;53.360;9.738;2022-11-15T08:16:30;10.00;94.90
7606;DHT22;3844;53.360;9.738;2022-11-15T08:20:32;10.20;95.10
7606;DHT22;3844;53.360;9.738;2022-11-15T08:22:33;10.30;95.10
7606;DHT22;3844;53.360;9.738;2022-11-15T08:24:34;10.30;95.20
7606;DHT22;3844;53.360;9.738;2022-11-15T08:26:35;10.40;95.40
7606;DHT22;3844;53.360;9.738;2022-11-15T08:28:35;10.40;95.50
7606;DHT22;3844;53.360;9.738;2022-11-15T08:30:40;10.50;95.60
7606;DHT22;3844;53.360;9.738;2022-11-15T08:32:42;10.50;95.60
7606;DHT22;3844;53.360;9.738;2022-11-15T08:34:43;10.60;95.50
7606;DHT22;3844;53.360;9.738;2022-11-15T08:36:44;10.70;95.50
7606;DHT22;3844;53.360;9.738;2022-11-15T08:38:44;10.80;95.50
7606;DHT22;3844;53.360;9.738;2022-11-15T08:40:45;10.90;95.70
7606;DHT22;3844;53.360;9.738;2022-11-15T08:42:47;11.00;95.70
7606;DHT22;3844;53.360;9.738;2022-11-15T08:44:47;11.10;95.70
7606;DHT22;3844;53.360;9.738;2022-11-15T08:46:48;11.10;95.70
7606;DHT22;3844;53.360;9.738;2022-11-15T08:48:49;11.10;95.70
7606;DHT22;3844;53.360;9.738;2022-11-15T08:50:56;11.20;95.70
7606;DHT22;3844;53.360;9.738;2022-11-15T08:52:57;11.20;95.70
7606;DHT22;3844;53.360;9.738;2022-11-15T08:54:58;11.30;95.70
7606;DHT22;3844;53.360;9.738;2022-11-15T08:56:59;11.40;95.70
7606;DHT22;3844;53.360;9.738;2022-11-15T08:58:59;11.50;95.70
7606;DHT22;3844;53.360;9.738;2022-11-15T09:01:00;11.60;95.70
7606;DHT22;3844;53.360;9.738;2022-11-15T09:03:04;11.70;95.70
7606;DHT22;3844;53.360;9.738;2022-11-15T09:05:06;11.80;95.70
7606;DHT22;3844;53.360;9.738;2022-11-15T09:07:07;11.90;95.70
7606;DHT22;3844;53.360;9.738;2022-11-15T09:09:08;12.00;95.70
7606;DHT22;3844;53.360;9.738;2022-11-15T09:11:10;12.10;95.70
7606;DHT22;3844;53.360;9.738;2022-11-15T09:13:10;12.20;95.70
7606;DHT22;3844;53.360;9.738;2022-11-15T09:15:11;12.40;95.70
7606;DHT22;3844;53.360;9.738;2022-11-15T09:17:11;12.40;95.70
7606;DHT22;3844;53.360;9.738;2022-11-15T09:19:12;12.40;95.70
7606;DHT22;3844;53.360;9.738;2022-11-15T09:21:15;12.40;95.70
7606;DHT22;3844;53.360;9.738;2022-11-15T09:23:15;12.40;95.70
7606;DHT22;3844;53.360;9.738;2022-11-15T09:25:16;12.40;95.70
7606;DHT22;3844;53.360;9.738;2022-11-15T09:27:17;12.40;95.70
7606;DHT22;3844;53.360;9.738;2022-11-15T09:29:18;12.40;95.70
7606;DHT22;3844;53.360;9.738;2022-11-15T09:31:19;12.40;95.70
7606;DHT22;3844;53.360;9.738;2022-11-15T09:33:20;12.40;95.70
7606;DHT22;3844;53.360;9.738;2022-11-15T09:35:20;12.40;95.70
7606;DHT22;3844;53.360;9.738;2022-11-15T09:37:21;12.30;95.70
7606;DHT22;3844;53.360;9.738;2022-11-15T09:39:22;12.30;95.70
7606;DHT22;3844;53.360;9.738;2022-11-15T09:41:29;12.30;95.70
7606;DHT22;3844;53.360;9.738;2022-11-15T09:49:11;12.40;95.70
7606;DHT22;3844;53.360;9.738;2022-11-15T09:51:38;12.50;95.70
7606;DHT22;3844;53.360;9.738;2022-11-15T09:56:15;12.50;95.70
7606;DHT22;3844;53.360;9.738;2022-11-15T09:58:29;12.50;95.70
7606;DHT22;3844;53.360;9.738;2022-11-15T10:00:45;12.40;95.70
7606;DHT22;3844;53.360;9.738;2022-11-15T10:03:16;12.40;95.70
7606;DHT22;3844;53.360;9.738;2022-11-15T10:05:20;12.40;95.70
7606;DHT22;3844;53.360;9.738;2022-11-15T10:07:31;12.40;95.70
7606;DHT22;3844;53.360;9.738;2022-11-15T10:09:50;12.40;95.70
7606;DHT22;3844;53.360;9.738;2022-11-15T10:11:52;12.40;95.70
7606;DHT22;3844;53.360;9.738;2022-11-15T10:13:56;12.40;95.70
7606;DHT22;3844;53.360;9.738;2022-11-15T10:16:12;12.50;95.70
7606;DHT22;3844;53.360;9.738;2022-11-15T10:18:18;12.60;95.70
7606;DHT22;3844;53.360;9.738;2022-11-15T10:24:27;12.60;95.70
7606;DHT22;3844;53.360;9.738;2022-11-15T10:26:31;12.60;95.70
7606;DHT22;3844;53.360;9.738;2022-11-15T10:28:32;12.70;95.70
7606;DHT22;3844;53.360;9.738;2022-11-15T10:30:38;12.70;95.70
7606;DHT22;3844;53.360;9.738;2022-11-15T10:32:40;12.70;95.70
7606;DHT22;3844;53.360;9.738;2022-11-15T10:34:42;12.70;95.70
7606;DHT22;3844;53.360;9.738;2022-11-15T10:36:57;12.90;95.70
7606;DHT22;3844;53.360;9.738;2022-11-15T10:38:58;12.90;95.70
7606;DHT22;3844;53.360;9.738;2022-11-15T10:41:07;13.00;95.70
7606;DHT22;3844;53.360;9.738;2022-11-15T10:43:17;13.00;95.70
7606;DHT22;3844;53.360;9.738;2022-11-15T10:45:28;13.00;95.70
7606;DHT22;3844;53.360;9.738;2022-11-15T10:47:31;13.00;95.70
7606;DHT22;3844;53.360;9.738;2022-11-15T10:49:33;13.00;95.70
7606;DHT22;3844;53.360;9.738;2022-11-15T10:53:44;13.00;95.70
7606;DHT22;3844;53.360;9.738;2022-11-15T10:55:52;13.00;95.70
7606;DHT22;3844;53.360;9.738;2022-11-15T10:58:27;13.00;95.70
7606;DHT22;3844;53.360;9.738;2022-11-15T11:00:36;13.00;95.70
7606;DHT22;3844;53.360;9.738;2022-11-15T11:02:56;13.00;95.70
7606;DHT22;3844;53.360;9.738;2022-11-15T11:04:57;13.10;95.70
7606;DHT22;3844;53.360;9.738;2022-11-15T11:06:59;13.10;95.70
7606;DHT22;3844;53.360;9.738;2022-11-15T11:09:02;13.10;95.70
7606;DHT22;3844;53.360;9.738;2022-11-15T11:11:04;13.10;95.70
7606;DHT22;3844;53.360;9.738;2022-11-15T11:13:35;13.20;95.70
7606;DHT22;3844;53.360;9.738;2022-11-15T11:15:36;13.40;95.70
7606;DHT22;3844;53.360;9.738;2022-11-15T11:18:06;13.50;95.70
7606;DHT22;3844;53.360;9.738;2022-11-15T11:20:45;13.60;95.70
7606;DHT22;3844;53.360;9.738;2022-11-15T11:23:03;13.70;95.70
7606;DHT22;3844;53.360;9.738;2022-11-15T11:36:42;14.20;95.70
7606;DHT22;3844;53.360;9.738;2022-11-15T11:50:44;14.30;95.70
7606;DHT22;3844;53.360;9.738;2022-11-15T11:53:12;14.30;95.70
7606;DHT22;3844;53.360;9.738;2022-11-15T11:55:26;14.40;95.70
7606;DHT22;3844;53.360;9.738;2022-11-15T11:57:41;14.40;95.70
7606;DHT22;3844;53.360;9.738;2022-11-15T12:00:00;14.50;95.70
7606;DHT22;3844;53.360;9.738;2022-11-15T12:02:26;14.50;95.70
7606;DHT22;3844;53.360;9.738;2022-11-15T12:04:30;14.50;93.80
7606;DHT22;3844;53.360;9.738;2022-11-15T12:07:07;14.40;93.50
7606;DHT22;3844;53.360;9.738;2022-11-15T12:12:13;14.40;95.40
7606;DHT22;3844;53.360;9.738;2022-11-15T12:14:33;14.50;94.70
7606;DHT22;3844;53.360;9.738;2022-11-15T12:16:34;14.60;95.10
7606;DHT22;3844;53.360;9.738;2022-11-15T12:18:35;14.60;94.30
7606;DHT22;3844;53.360;9.738;2022-11-15T12:20:40;14.70;94.10
7606;DHT22;3844;53.360;9.738;2022-11-15T12:25:08;14.70;93.50
7606;DHT22;3844;53.360;9.738;2022-11-15T12:27:31;14.70;93.60
7606;DHT22;3844;53.360;9.738;2022-11-15T12:29:41;14.70;93.80
7606;DHT22;3844;53.360;9.738;2022-11-15T12:31:45;14.70;92.90
7606;DHT22;3844;53.360;9.738;2022-11-15T12:33:49;14.80;93.30
7606;DHT22;3844;53.360;9.738;2022-11-15T12:35:59;14.90;92.20
7606;DHT22;3844;53.360;9.738;2022-11-15T12:38:00;14.90;90.50
7606;DHT22;3844;53.360;9.738;2022-11-15T12:55:29;15.10;89.80
7606;DHT22;3844;53.360;9.738;2022-11-15T12:57:33;15.10;89.50
7606;DHT22;3844;53.360;9.738;2022-11-15T12:59:56;15.20;89.00
7606;DHT22;3844;53.360;9.738;2022-11-15T13:01:59;15.10;86.60
7606;DHT22;3844;53.360;9.738;2022-11-15T13:06:40;15.10;89.20
7606;DHT22;3844;53.360;9.738;2022-11-15T13:08:44;15.00;87.80
7606;DHT22;3844;53.360;9.738;2022-11-15T13:10:47;15.00;88.30
7606;DHT22;3844;53.360;9.738;2022-11-15T13:12:50;14.90;88.50
7606;DHT22;3844;53.360;9.738;2022-11-15T13:14:58;14.90;87.60
7606;DHT22;3844;53.360;9.738;2022-11-15T13:16:59;14.80;88.40
7606;DHT22;3844;53.360;9.738;2022-11-15T13:19:02;14.80;88.90
7606;DHT22;3844;53.360;9.738;2022-11-15T13:21:16;14.80;89.10
7606;DHT22;3844;53.360;9.738;2022-11-15T13:23:38;14.80;89.10
7606;DHT22;3844;53.360;9.738;2022-11-15T13:30:50;14.90;88.00
7606;DHT22;3844;53.360;9.738;2022-11-15T13:32:52;15.00;88.20
7606;DHT22;3844;53.360;9.738;2022-11-15T13:34:53;15.00;88.60
7606;DHT22;3844;53.360;9.738;2022-11-15T13:36:54;15.10;87.90
7606;DHT22;3844;53.360;9.738;2022-11-15T13:39:06;15.30;87.60
7606;DHT22;3844;53.360;9.738;2022-11-15T13:41:21;15.30;86.50
7606;DHT22;3844;53.360;9.738;2022-11-15T13:45:24;15.30;86.60
7606;DHT22;3844;53.360;9.738;2022-11-15T13:47:28;15.30;86.60
7606;DHT22;3844;53.360;9.738;2022-11-15T13:49:31;15.20;86.90
7606;DHT22;3844;53.360;9.738;2022-11-15T13:51:50;15.20;87.40
7606;DHT22;3844;53.360;9.738;2022-11-15T13:56:16;15.00;86.80
7606;DHT22;3844;53.360;9.738;2022-11-15T13:58:19;14.90;87.20
7606;DHT22;3844;53.360;9.738;2022-11-15T14:02:39;14.80;88.50
7606;DHT22;3844;53.360;9.738;2022-11-15T14:04:47;14.70;89.20
7606;DHT22;3844;53.360;9.738;2022-11-15T14:06:53;14.60;89.60
7606;DHT22;3844;53.360;9.738;2022-11-15T14:11:19;14.40;90.80
7606;DHT22;3844;53.360;9.738;2022-11-15T14:13:28;14.40;91.30
7606;DHT22;3844;53.360;9.738;2022-11-15T14:15:34;14.30;91.60
7606;DHT22;3844;53.360;9.738;2022-11-15T14:17:37;14.20;92.10
7606;DHT22;3844;53.360;9.738;2022-11-15T14:19:39;14.20;92.50
7606;DHT22;3844;53.360;9.738;2022-11-15T14:24:20;14.10;92.70
7606;DHT22;3844;53.360;9.738;2022-11-15T14:26:33;14.10;93.10
7606;DHT22;3844;53.360;9.738;2022-11-15T14:28:34;14.00;93.10
7606;DHT22;3844;53.360;9.738;2022-11-15T14:30:39;13.90;93.50
7606;DHT22;3844;53.360;9.738;2022-11-15T14:32:46;13.90;93.80
7606;DHT22;3844;53.360;9.738;2022-11-15T14:34:57;13.80;94.00
7606;DHT22;3844;53.360;9.738;2022-11-15T14:36:58;13.70;94.40
7606;DHT22;3844;53.360;9.738;2022-11-15T14:41:01;13.60;95.70
7606;DHT22;3844;53.360;9.738;2022-11-15T14:43:02;13.50;95.70
7606;DHT22;3844;53.360;9.738;2022-11-15T14:45:04;13.50;95.70
7606;DHT22;3844;53.360;9.738;2022-11-15T14:47:09;13.40;95.70
7606;DHT22;3844;53.360;9.738;2022-11-15T14:51:16;13.30;95.70
7606;DHT22;3844;53.360;9.738;2022-11-15T14:53:17;13.20;95.70
7606;DHT22;3844;53.360;9.738;2022-11-15T14:55:28;13.10;95.70
7606;DHT22;3844;53.360;9.738;2022-11-15T14:57:30;13.00;95.70
7606;DHT22;3844;53.360;9.738;2022-11-15T14:59:31;12.90;95.70
7606;DHT22;3844;53.360;9.738;2022-11-15T15:01:31;12.80;95.70
7606;DHT22;3844;53.360;9.738;2022-11-15T15:03:32;12.70;95.70
7606;DHT22;3844;53.360;9.738;2022-11-15T15:05:41;12.60;95.70
7606;DHT22;3844;53.360;9.738;2022-11-15T15:07:42;12.50;95.70
7606;DHT22;3844;53.360;9.738;2022-11-15T15:09:43;12.40;95.70
7606;DHT22;3844;53.360;9.738;2022-11-15T15:11:44;12.20;95.70
7606;DHT22;3844;53.360;9.738;2022-11-15T15:13:46;12.10;95.70
7606;DHT22;3844;53.360;9.738;2022-11-15T15:15:47;12.00;95.70
7606;DHT22;3844;53.360;9.738;2022-11-15T15:17:48;11.90;95.70
7606;DHT22;3844;53.360;9.738;2022-11-15T15:19:49;11.70;95.70
7606;DHT22;3844;53.360;9.738;2022-11-15T15:23:52;11.60;95.70
7606;DHT22;3844;53.360;9.738;2022-11-15T15:25:54;11.50;95.70
7606;DHT22;3844;53.360;9.738;2022-11-15T15:27:55;11.40;95.70
7606;DHT22;3844;53.360;9.738;2022-11-15T15:29:56;11.30;95.70
7606;DHT22;3844;53.360;9.738;2022-11-15T15:31:56;11.30;95.70
7606;DHT22;3844;53.360;9.738;2022-11-15T15:35:58;11.10;95.70
7606;DHT22;3844;53.360;9.738;2022-11-15T15:38:00;11.10;95.70
7606;DHT22;3844;53.360;9.738;2022-11-15T15:40:00;11.10;95.70
7606;DHT22;3844;53.360;9.738;2022-11-15T15:42:01;11.10;95.70
7606;DHT22;3844;53.360;9.738;2022-11-15T15:44:02;11.00;95.70
7606;DHT22;3844;53.360;9.738;2022-11-15T15:46:02;11.00;95.70
7606;DHT22;3844;53.360;9.738;2022-11-15T15:48:03;11.00;95.70
7606;DHT22;3844;53.360;9.738;2022-11-15T15:50:28;11.00;95.70
7606;DHT22;3844;53.360;9.738;2022-11-15T15:52:29;11.10;95.70
7606;DHT22;3844;53.360;9.738;2022-11-15T15:54:30;11.10;95.70
7606;DHT22;3844;53.360;9.738;2022-11-15T15:56:31;11.10;95.70
7606;DHT22;3844;53.360;9.738;2022-11-15T15:58:31;11.10;95.70
7606;DHT22;3844;53.360;9.738;2022-11-15T16:02:34;11.20;95.70
7606;DHT22;3844;53.360;9.738;2022-11-15T16:04:34;11.20;95.70
7606;DHT22;3844;53.360;9.738;2022-11-15T16:06:39;11.30;95.70
7606;DHT22;3844;53.360;9.738;2022-11-15T16:08:44;11.30;95.70
7606;DHT22;3844;53.360;9.738;2022-11-15T16:10:45;11.30;95.70
7606;DHT22;3844;53.360;9.738;2022-11-15T16:12:46;11.30;95.70
7606;DHT22;3844;53.360;9.738;2022-11-15T16:16:48;11.30;95.70
7606;DHT22;3844;53.360;9.738;2022-11-15T16:18:49;11.30;95.70
7606;DHT22;3844;53.360;9.738;2022-11-15T16:20:49;11.20;95.70
7606;DHT22;3844;53.360;9.738;2022-11-15T16:22:52;11.20;95.70